Time;durP1;ratioP1;P1;durP2;ratioP2;P2;SDS_P1;SDS_P2;PMS_P1;PMS_P2;Temp;Humidity;BMP_temperature;BMP_pressure;BME280_temperature;BME280_humidity;BME280_pressure;Samples;Min_cycle;Max_cycle;Signal;HPM_P1;HPM_P2
2023/09/15 00:01:36;;;;;;;3.72;3.25;;;11.40;99.90;;;;;;4992263;28;20355;-63
2023/09/15 00:04:06;;;;;;;6.20;3.72;;;11.40;99.90;;;;;;5010700;28;20221;-63
2023/09/15 00:06:35;;;;;;;6.10;3.80;;;11.30;99.90;;;;;;5008921;28;20212;-63
2023/09/15 00:09:03;;;;;;;5.13;3.72;;;11.40;99.90;;;;;;5008881;28;20245;-63
2023/09/15 00:11:39;;;;;;;4.25;3.42;;;11.20;99.90;;;;;;4992579;28;20242;-63
2023/09/15 00:14:09;;;;;;;7.60;3.05;;;11.30;99.90;;;;;;5014063;28;20210;-63
2023/09/15 00:16:36;;;;;;;6.15;3.40;;;;;;;;;;4994857;28;20710;-63
2023/09/15 00:19:05;;;;;;;5.25;3.55;;;11.20;99.90;;;;;;5020082;28;20198;-63
2023/09/15 00:21:32;;;;;;;4.95;3.78;;;11.40;99.90;;;;;;5010159;28;20224;-63
2023/09/15 00:23:59;;;;;;;4.18;3.45;;;11.40;99.90;;;;;;5015136;28;20229;-64
2023/09/15 00:26:28;;;;;;;8.23;3.50;;;11.30;99.90;;;;;;5008354;28;20567;-63
2023/09/15 00:28:56;;;;;;;6.63;3.60;;;11.40;99.90;;;;;;4979244;28;20783;-63
2023/09/15 00:31:25;;;;;;;7.65;3.72;;;11.20;99.90;;;;;;4998967;28;20331;-63
2023/09/15 00:33:51;;;;;;;4.95;3.80;;;11.10;99.90;;;;;;5012709;28;20564;-63
2023/09/15 00:36:18;;;;;;;6.03;3.45;;;11.10;99.90;;;;;;5015472;28;20197;-63
2023/09/15 00:38:45;;;;;;;4.63;3.90;;;11.10;99.90;;;;;;5000597;28;20206;-63
2023/09/15 00:41:13;;;;;;;5.32;3.17;;;11.20;99.90;;;;;;5007854;28;20202;-63
2023/09/15 00:43:40;;;;;;;5.75;3.38;;;11.20;99.90;;;;;;4971814;28;20206;-64
2023/09/15 00:46:09;;;;;;;6.30;3.30;;;11.30;99.90;;;;;;5016761;28;20212;-63
2023/09/15 00:48:39;;;;;;;6.20;3.30;;;11.20;99.90;;;;;;5003960;28;20278;-63
2023/09/15 00:51:07;;;;;;;4.82;3.10;;;11.30;99.90;;;;;;5012848;28;20194;-64
2023/09/15 00:53:34;;;;;;;5.00;3.25;;;11.30;99.90;;;;;;5000383;28;20198;-63
2023/09/15 00:56:03;;;;;;;7.05;3.38;;;11.00;99.90;;;;;;5018056;28;20214;-63
2023/09/15 00:58:30;;;;;;;4.15;3.15;;;11.00;99.90;;;;;;5006129;28;20824;-63
2023/09/15 01:00:57;;;;;;;3.38;3.08;;;11.00;99.90;;;;;;4981082;28;20209;-63
2023/09/15 01:03:25;;;;;;;5.70;3.33;;;11.10;99.90;;;;;;5003609;28;20227;-63
2023/09/15 01:05:53;;;;;;;3.58;3.05;;;11.00;99.90;;;;;;5016235;28;20201;-63
2023/09/15 01:08:20;;;;;;;3.70;3.10;;;11.00;99.90;;;;;;5017949;28;20217;-63
2023/09/15 01:10:47;;;;;;;3.92;3.15;;;10.90;99.90;;;;;;5007254;28;20201;-64
2023/09/15 01:13:13;;;;;;;7.15;3.65;;;10.90;99.90;;;;;;5006188;28;20209;-63
2023/09/15 01:15:46;;;;;;;3.08;2.78;;;10.90;99.90;;;;;;4977912;28;20725;-63
2023/09/15 01:18:22;;;;;;;3.10;2.80;;;10.90;99.90;;;;;;5017123;28;20216;-63
2023/09/15 01:21:40;;;;;;;4.22;3.15;;;11.00;99.90;;;;;;5008151;28;20225;-63
2023/09/15 01:24:47;;;;;;;4.93;2.97;;;11.10;99.90;;;;;;5004958;28;20209;-63
2023/09/15 01:27:24;;;;;;;3.20;2.83;;;11.10;99.90;;;;;;4996273;28;20193;-63
2023/09/15 01:29:54;;;;;;;6.18;3.13;;;11.10;99.90;;;;;;5013859;28;20225;-63
2023/09/15 01:32:23;;;;;;;6.72;2.88;;;11.10;99.90;;;;;;4980164;28;20562;-63
2023/09/15 01:34:51;;;;;;;5.70;2.90;;;11.50;99.90;;;;;;5004994;28;20312;-63
2023/09/15 01:37:18;;;;;;;4.53;3.00;;;11.10;99.90;;;;;;5014869;28;20206;-63
2023/09/15 01:39:45;;;;;;;3.88;2.90;;;11.00;99.90;;;;;;5003625;28;21319;-63
2023/09/15 01:42:12;;;;;;;4.25;2.70;;;10.90;99.90;;;;;;5017584;28;21670;-63
2023/09/15 01:44:39;;;;;;;4.85;3.38;;;11.00;99.90;;;;;;5019473;28;20193;-63
2023/09/15 01:47:09;;;;;;;6.07;2.80;;;11.00;99.90;;;;;;4981803;28;20198;-63
2023/09/15 01:49:37;;;;;;;4.20;3.15;;;11.00;99.90;;;;;;5005728;28;20334;-63
2023/09/15 01:52:04;;;;;;;10.88;2.97;;;11.00;99.90;;;;;;5014340;28;20338;-63
2023/09/15 01:54:31;;;;;;;3.53;3.20;;;11.00;99.90;;;;;;5013374;28;20202;-64
2023/09/15 01:56:58;;;;;;;6.07;2.78;;;11.00;99.90;;;;;;5004297;28;20466;-63
2023/09/15 01:59:25;;;;;;;3.75;2.80;;;11.00;99.90;;;;;;5017589;28;24956;-63
2023/09/15 02:01:52;;;;;;;3.05;2.75;;;10.90;99.90;;;;;;4992378;28;20217;-63
2023/09/15 02:04:20;;;;;;;4.97;2.97;;;10.90;99.90;;;;;;5014498;28;20309;-63
2023/09/15 02:06:47;;;;;;;3.70;2.75;;;11.00;99.90;;;;;;5005677;28;20205;-63
2023/09/15 02:09:15;;;;;;;4.95;3.08;;;10.90;99.90;;;;;;5015980;28;20433;-63
2023/09/15 02:11:42;;;;;;;4.78;2.88;;;10.90;99.90;;;;;;5008568;28;20206;-63
2023/09/15 02:14:08;;;;;;;4.90;2.40;;;10.90;99.90;;;;;;5013166;28;20552;-63
2023/09/15 02:16:35;;;;;;;4.20;2.90;;;10.90;99.90;;;;;;5011584;28;20642;-63
2023/09/15 02:19:02;;;;;;;3.05;2.75;;;10.80;99.90;;;;;;4975120;28;20213;-63
2023/09/15 02:21:30;;;;;;;3.80;2.45;;;10.70;99.90;;;;;;5005699;28;20213;-63
2023/09/15 02:23:57;;;;;;;3.65;2.58;;;10.80;99.90;;;;;;5010451;28;20248;-63
2023/09/15 02:26:24;;;;;;;3.83;2.70;;;10.70;99.90;;;;;;5012611;28;20202;-63
2023/09/15 02:28:51;;;;;;;3.25;2.70;;;10.60;99.90;;;;;;4999724;28;20226;-63
2023/09/15 02:31:18;;;;;;;4.43;2.90;;;10.60;99.90;;;;;;5011379;28;20226;-63
2023/09/15 02:33:45;;;;;;;3.25;2.60;;;10.50;99.90;;;;;;4974474;28;20212;-63
2023/09/15 02:36:12;;;;;;;6.55;3.15;;;10.40;99.90;;;;;;5005275;28;20961;-63
2023/09/15 02:38:40;;;;;;;4.60;3.08;;;10.40;99.90;;;;;;5012613;28;20210;-63
2023/09/15 02:41:07;;;;;;;7.15;3.50;;;10.40;99.90;;;;;;5012718;28;20564;-63
2023/09/15 02:43:34;;;;;;;3.65;2.88;;;10.40;99.90;;;;;;4996162;28;22932;-63
2023/09/15 02:46:04;;;;;;;4.57;3.72;;;10.40;99.90;;;;;;5015427;28;20244;-63
2023/09/15 02:48:31;;;;;;;5.40;4.13;;;10.40;99.90;;;;;;4976742;28;20353;-63
2023/09/15 02:50:59;;;;;;;4.30;3.50;;;10.40;99.90;;;;;;5009058;28;20205;-63
2023/09/15 02:53:25;;;;;;;4.57;3.88;;;10.40;99.90;;;;;;5006949;28;22110;-63
2023/09/15 02:55:59;;;;;;;5.25;3.60;;;10.40;99.90;;;;;;5015063;28;20204;-63
2023/09/15 02:58:26;;;;;;;3.65;2.65;;;10.50;99.90;;;;;;5003363;28;20296;-63
2023/09/15 03:00:53;;;;;;;4.57;2.80;;;10.40;99.90;;;;;;5009128;28;20209;-63
2023/09/15 03:03:22;;;;;;;3.17;2.78;;;10.40;99.90;;;;;;4972001;28;20225;-63
2023/09/15 03:05:49;;;;;;;6.07;2.55;;;10.40;99.90;;;;;;5014636;28;20703;-63
2023/09/15 03:08:16;;;;;;;4.72;2.20;;;10.40;99.90;;;;;;5003742;28;20206;-66
2023/09/15 03:10:43;;;;;;;10.50;2.55;;;10.30;99.90;;;;;;5015813;28;20205;-63
2023/09/15 03:13:11;;;;;;;4.38;2.50;;;10.40;99.90;;;;;;5013803;28;20198;-63
2023/09/15 03:15:39;;;;;;;3.45;2.97;;;10.40;99.90;;;;;;5006737;28;20555;-63
2023/09/15 03:18:06;;;;;;;3.78;2.45;;;10.40;99.90;;;;;;5004850;28;20968;-63
2023/09/15 03:20:35;;;;;;;4.22;3.10;;;10.60;99.90;;;;;;4996954;28;20204;-63
2023/09/15 03:23:02;;;;;;;4.20;2.30;;;10.40;99.90;;;;;;5012381;28;20189;-63
2023/09/15 03:25:29;;;;;;;4.15;2.63;;;10.40;99.90;;;;;;5001991;28;21132;-63
2023/09/15 03:27:56;;;;;;;3.75;2.35;;;10.40;99.90;;;;;;5015746;28;20201;-63
2023/09/15 03:30:24;;;;;;;8.85;2.33;;;10.50;99.90;;;;;;4996033;28;20248;-63
2023/09/15 03:32:51;;;;;;;3.75;2.10;;;10.60;99.90;;;;;;5013206;28;20564;-63
2023/09/15 03:35:18;;;;;;;4.10;2.28;;;10.60;99.90;;;;;;4971632;28;20213;-63
2023/09/15 03:37:45;;;;;;;2.95;2.15;;;10.60;99.90;;;;;;5014150;28;20199;-63
2023/09/15 03:40:12;;;;;;;4.60;2.10;;;10.60;99.90;;;;;;4999948;28;20583;-63
2023/09/15 03:42:39;;;;;;;6.53;2.28;;;10.60;99.90;;;;;;5010628;28;20697;-63
2023/09/15 03:45:07;;;;;;;3.47;2.45;;;10.60;99.90;;;;;;5006963;28;20194;-63
2023/09/15 03:47:36;;;;;;;4.53;2.67;;;10.60;99.90;;;;;;5002250;28;20277;-63
2023/09/15 03:50:03;;;;;;;6.38;3.05;;;10.50;99.90;;;;;;4962733;28;20240;-63
2023/09/15 03:52:30;;;;;;;2.63;2.00;;;10.60;99.90;;;;;;5009127;28;20414;-63
2023/09/15 03:55:00;;;;;;;3.50;1.85;;;10.50;99.90;;;;;;5013105;28;20717;-63
2023/09/15 03:57:27;;;;;;;2.60;2.15;;;10.50;99.90;;;;;;4996679;28;20212;-62
2023/09/15 03:59:56;;;;;;;3.13;2.10;;;10.50;99.90;;;;;;5018052;28;20833;-63
2023/09/15 04:02:23;;;;;;;1.90;1.80;;;10.50;99.90;;;;;;4986606;28;20210;-63
2023/09/15 04:04:51;;;;;;;2.22;1.80;;;10.50;99.90;;;;;;4969100;28;20224;-63
2023/09/15 04:07:19;;;;;;;4.60;2.05;;;10.50;99.90;;;;;;5005854;28;20200;-63
2023/09/15 04:09:46;;;;;;;2.63;2.17;;;10.50;99.90;;;;;;5014075;28;20509;-63
2023/09/15 04:12:13;;;;;;;3.10;1.92;;;10.30;99.90;;;;;;5003052;28;21943;-63
2023/09/15 04:14:40;;;;;;;3.75;1.67;;;10.50;99.90;;;;;;5016611;28;20232;-63
2023/09/15 04:17:07;;;;;;;3.53;1.77;;;10.40;99.90;;;;;;4996827;28;20213;-63
2023/09/15 04:19:34;;;;;;;4.80;1.90;;;10.40;99.90;;;;;;4986879;28;20217;-63
2023/09/15 04:22:02;;;;;;;5.45;2.15;;;10.50;99.90;;;;;;5004473;28;20255;-63
2023/09/15 04:24:28;;;;;;;2.28;1.85;;;10.40;99.90;;;;;;5004499;28;21808;-63
2023/09/15 04:26:55;;;;;;;6.72;1.77;;;10.30;99.90;;;;;;5001557;28;20197;-63
2023/09/15 04:29:22;;;;;;;4.10;2.10;;;10.30;99.90;;;;;;5007979;28;20229;-63
2023/09/15 04:31:49;;;;;;;4.38;1.90;;;10.30;99.90;;;;;;4990197;28;20205;-63
2023/09/15 04:34:15;;;;;;;4.40;1.63;;;10.10;99.90;;;;;;4995150;28;20224;-63
2023/09/15 04:36:43;;;;;;;4.22;1.52;;;10.70;99.90;;;;;;4976291;28;20603;-63
2023/09/15 04:39:13;;;;;;;2.50;2.00;;;10.80;99.90;;;;;;5001371;28;20252;-63
2023/09/15 04:41:40;;;;;;;5.05;1.77;;;;;;;;;;5004991;28;20213;-63
2023/09/15 04:44:07;;;;;;;3.47;1.70;;;8.30;99.90;;;;;;5010002;28;20715;-63
2023/09/15 04:46:34;;;;;;;3.88;1.90;;;11.30;99.90;;;;;;5006809;28;20226;-63
2023/09/15 04:49:01;;;;;;;1.70;1.60;;;11.20;99.90;;;;;;5008756;28;20226;-63
2023/09/15 04:51:28;;;;;;;3.47;1.50;;;10.90;99.90;;;;;;4960760;28;20229;-62
2023/09/15 04:53:55;;;;;;;1.85;1.60;;;11.20;99.90;;;;;;4993492;28;20229;-63
2023/09/15 04:56:23;;;;;;;3.38;1.95;;;10.60;99.90;;;;;;5006246;28;20220;-62
2023/09/15 04:58:51;;;;;;;7.20;1.70;;;10.60;99.90;;;;;;5000838;28;20223;-63
2023/09/15 05:01:19;;;;;;;2.13;1.55;;;10.50;99.90;;;;;;5018211;28;20205;-63
2023/09/15 05:03:46;;;;;;;2.40;1.75;;;10.50;99.90;;;;;;4985448;28;20221;-62
2023/09/15 05:06:12;;;;;;;3.65;1.70;;;10.50;99.90;;;;;;5007112;28;20213;-63
2023/09/15 05:08:39;;;;;;;3.78;1.77;;;10.50;99.90;;;;;;4956310;28;20225;-63
2023/09/15 05:11:06;;;;;;;3.60;1.65;;;10.50;99.90;;;;;;5003100;28;20833;-63
2023/09/15 05:13:34;;;;;;;4.90;1.80;;;10.50;99.90;;;;;;5000162;28;20718;-63
2023/09/15 05:16:03;;;;;;;3.80;1.70;;;10.50;99.90;;;;;;5007715;28;20314;-62
2023/09/15 05:18:29;;;;;;;1.65;1.55;;;10.50;99.90;;;;;;5001434;28;20612;-63
2023/09/15 05:20:56;;;;;;;2.38;1.60;;;10.50;99.90;;;;;;5013988;28;20201;-62
2023/09/15 05:23:23;;;;;;;3.38;1.70;;;10.60;99.90;;;;;;4968167;28;20495;-62
2023/09/15 05:25:50;;;;;;;3.20;1.50;;;10.60;99.90;;;;;;5011825;28;20793;-62
2023/09/15 05:28:17;;;;;;;3.17;1.70;;;10.60;99.90;;;;;;4997968;28;20783;-63
2023/09/15 05:30:45;;;;;;;5.57;1.73;;;10.60;99.90;;;;;;5012083;28;20272;-63
2023/09/15 05:33:12;;;;;;;5.88;2.30;;;10.70;99.90;;;;;;5001388;28;21050;-63
2023/09/15 05:35:39;;;;;;;4.32;1.85;;;10.70;99.90;;;;;;5012634;28;20232;-63
2023/09/15 05:38:06;;;;;;;2.35;1.55;;;10.70;99.90;;;;;;4959188;28;20210;-62
2023/09/15 05:40:32;;;;;;;8.23;1.85;;;10.80;99.90;;;;;;5013745;28;20193;-62
2023/09/15 05:43:00;;;;;;;3.03;1.70;;;10.80;99.90;;;;;;5013445;28;20202;-62
2023/09/15 05:45:27;;;;;;;2.95;2.00;;;10.80;99.90;;;;;;5004290;28;20198;-62
2023/09/15 05:47:55;;;;;;;3.50;2.05;;;10.80;99.90;;;;;;5010501;28;21189;-62
2023/09/15 05:50:23;;;;;;;3.45;1.75;;;10.80;99.90;;;;;;5010537;28;20615;-63
2023/09/15 05:52:50;;;;;;;6.20;1.80;;;10.80;99.90;;;;;;5005691;28;20305;-63
2023/09/15 05:55:17;;;;;;;4.05;1.88;;;10.80;99.90;;;;;;4977536;28;20580;-62
2023/09/15 05:57:43;;;;;;;3.72;1.65;;;10.90;99.90;;;;;;5006677;28;20217;-63
2023/09/15 06:00:11;;;;;;;5.43;1.80;;;10.90;99.90;;;;;;5003812;28;20471;-62
2023/09/15 06:02:38;;;;;;;2.53;1.65;;;11.00;99.90;;;;;;5008965;28;20415;-62
2023/09/15 06:05:08;;;;;;;6.05;2.00;;;11.00;99.90;;;;;;5004548;28;20230;-63
2023/09/15 06:07:34;;;;;;;3.85;2.17;;;11.00;99.90;;;;;;5004769;28;20520;-62
2023/09/15 06:10:01;;;;;;;2.83;1.88;;;11.10;99.90;;;;;;4967958;28;20232;-63
2023/09/15 06:12:28;;;;;;;7.72;2.00;;;11.10;99.90;;;;;;5000884;28;20232;-63
2023/09/15 06:14:56;;;;;;;4.63;1.83;;;11.10;99.90;;;;;;5001098;28;23338;-62
2023/09/15 06:17:23;;;;;;;4.63;2.08;;;11.20;99.90;;;;;;4996535;28;20985;-63
2023/09/15 06:19:50;;;;;;;4.35;1.70;;;11.30;99.90;;;;;;4999096;28;20371;-63
2023/09/15 06:22:19;;;;;;;3.75;1.90;;;11.30;99.90;;;;;;5010827;28;20224;-62
2023/09/15 06:24:46;;;;;;;4.13;1.95;;;11.40;99.90;;;;;;4965524;28;20216;-63
2023/09/15 06:27:12;;;;;;;2.45;1.73;;;10.40;99.90;;;;;;4991615;28;20217;-63
2023/09/15 06:29:39;;;;;;;4.00;1.85;;;11.50;99.90;;;;;;4996867;28;20240;-64
2023/09/15 06:32:06;;;;;;;3.03;2.10;;;11.60;99.90;;;;;;4996395;28;24641;-63
2023/09/15 06:34:33;;;;;;;3.03;2.05;;;11.60;99.90;;;;;;5015316;28;20210;-63
2023/09/15 06:37:01;;;;;;;3.75;1.90;;;11.70;99.90;;;;;;4994259;28;20225;-63
2023/09/15 06:39:30;;;;;;;4.07;1.70;;;11.80;99.90;;;;;;4980524;28;20209;-63
2023/09/15 06:41:56;;;;;;;2.20;2.00;;;11.80;99.90;;;;;;5002557;28;20405;-63
2023/09/15 06:44:23;;;;;;;2.75;1.70;;;11.90;99.90;;;;;;5010322;28;20236;-63
2023/09/15 06:46:50;;;;;;;4.88;1.92;;;11.90;99.90;;;;;;4997468;28;20347;-63
2023/09/15 06:49:21;;;;;;;5.50;1.90;;;12.10;99.90;;;;;;5021199;28;20778;-62
2023/09/15 06:51:48;;;;;;;6.35;2.30;;;12.10;99.90;;;;;;5011060;28;20610;-63
2023/09/15 06:54:15;;;;;;;2.67;2.03;;;12.20;99.90;;;;;;4981332;28;20225;-63
2023/09/15 06:56:43;;;;;;;2.08;1.70;;;12.20;99.90;;;;;;5013642;28;20252;-63
2023/09/15 06:59:10;;;;;;;2.75;2.38;;;12.30;99.90;;;;;;5013629;28;20202;-62
2023/09/15 07:01:36;;;;;;;3.08;1.88;;;12.30;99.90;;;;;;4991020;28;20222;-62
2023/09/15 07:04:03;;;;;;;3.28;2.10;;;12.60;99.90;;;;;;5004210;28;21104;-63
2023/09/15 07:06:30;;;;;;;5.07;2.10;;;12.60;99.90;;;;;;5018151;28;20213;-63
2023/09/15 07:08:57;;;;;;;3.97;2.28;;;12.60;99.90;;;;;;4969714;28;20205;-63
2023/09/15 07:11:24;;;;;;;6.25;2.17;;;12.70;99.90;;;;;;5019696;28;20260;-63
2023/09/15 07:13:52;;;;;;;2.92;1.90;;;12.70;99.90;;;;;;5005978;28;20275;-63
2023/09/15 07:16:19;;;;;;;3.70;2.33;;;12.80;99.90;;;;;;5000051;28;20715;-63
2023/09/15 07:18:45;;;;;;;5.15;2.40;;;12.80;99.90;;;;;;4994522;28;20248;-63
2023/09/15 07:21:12;;;;;;;3.97;2.20;;;12.80;99.90;;;;;;5013378;28;20498;-63
2023/09/15 07:23:39;;;;;;;5.03;2.50;;;12.90;99.90;;;;;;5009987;28;20252;-63
2023/09/15 07:26:06;;;;;;;4.07;2.45;;;13.00;99.90;;;;;;4976271;28;20341;-63
2023/09/15 07:28:33;;;;;;;6.05;2.78;;;13.10;99.90;;;;;;5007264;28;20679;-63
2023/09/15 07:31:04;;;;;;;5.72;2.70;;;13.10;99.90;;;;;;5006036;28;20703;-63
2023/09/15 07:33:31;;;;;;;7.55;2.42;;;13.10;99.90;;;;;;5003788;28;20197;-63
2023/09/15 07:35:59;;;;;;;7.38;2.92;;;13.20;99.90;;;;;;4999357;28;20225;-63
2023/09/15 07:38:26;;;;;;;3.10;2.40;;;13.30;99.90;;;;;;5005183;28;20578;-63
2023/09/15 07:40:55;;;;;;;3.80;2.60;;;11.50;99.90;;;;;;4962451;28;21776;-63
2023/09/15 07:43:22;;;;;;;6.80;2.88;;;13.40;99.90;;;;;;5010611;28;21110;-63
2023/09/15 07:45:50;;;;;;;4.72;2.67;;;13.40;99.90;;;;;;4993464;28;20810;-63
2023/09/15 07:48:18;;;;;;;4.47;2.42;;;13.50;99.90;;;;;;5003320;28;20648;-63
2023/09/15 07:50:45;;;;;;;4.45;2.50;;;13.50;99.90;;;;;;5001936;28;20233;-63
2023/09/15 07:53:12;;;;;;;5.65;2.50;;;13.60;99.90;;;;;;5011174;28;20575;-63
2023/09/15 07:55:39;;;;;;;5.07;2.60;;;14.30;99.90;;;;;;4998198;28;20205;-63
2023/09/15 07:58:05;;;;;;;8.10;2.95;;;13.80;99.90;;;;;;4994742;28;20220;-63
2023/09/15 08:00:33;;;;;;;6.25;3.00;;;13.80;99.90;;;;;;5004525;28;20229;-63
2023/09/15 08:03:00;;;;;;;3.55;2.35;;;13.90;99.90;;;;;;4991444;28;20315;-63
2023/09/15 08:05:29;;;;;;;5.72;2.90;;;13.90;99.90;;;;;;5009023;28;20260;-62
2023/09/15 08:07:56;;;;;;;3.47;2.20;;;13.90;99.90;;;;;;5019364;28;20247;-63
2023/09/15 08:10:23;;;;;;;6.57;3.00;;;13.90;99.90;;;;;;5008747;28;20233;-63
2023/09/15 08:12:52;;;;;;;8.05;3.00;;;14.00;99.90;;;;;;4984656;28;20232;-63
2023/09/15 08:15:19;;;;;;;6.32;2.67;;;14.10;99.90;;;;;;5006493;28;20404;-62
2023/09/15 08:17:46;;;;;;;6.07;2.90;;;14.10;99.90;;;;;;5003014;28;20981;-62
2023/09/15 08:20:14;;;;;;;5.63;2.60;;;14.20;99.90;;;;;;4997751;28;20225;-62
2023/09/15 08:22:43;;;;;;;5.70;2.70;;;14.20;99.90;;;;;;5021955;28;20221;-62
2023/09/15 08:25:11;;;;;;;2.90;2.35;;;14.50;99.90;;;;;;5005160;28;20221;-62
2023/09/15 08:27:38;;;;;;;5.88;2.38;;;14.50;99.90;;;;;;4980435;28;20205;-62
2023/09/15 08:30:08;;;;;;;5.65;2.75;;;14.50;99.90;;;;;;5010725;28;20232;-62
2023/09/15 08:32:35;;;;;;;3.70;2.38;;;14.60;99.90;;;;;;5008715;28;20220;-62
2023/09/15 08:35:03;;;;;;;4.15;2.70;;;14.50;99.90;;;;;;5015115;28;20489;-62
2023/09/15 08:37:30;;;;;;;5.22;2.72;;;14.70;99.90;;;;;;5021882;28;20930;-62
2023/09/15 08:39:59;;;;;;;5.30;2.20;;;14.70;99.90;;;;;;5013700;28;20228;-62
2023/09/15 08:42:28;;;;;;;4.18;2.55;;;14.70;99.90;;;;;;4980065;28;20217;-63
2023/09/15 08:44:57;;;;;;;6.57;2.40;;;14.70;99.90;;;;;;5000452;28;20705;-63
2023/09/15 08:47:27;;;;;;;3.08;2.50;;;14.80;99.90;;;;;;5015639;28;20226;-63
2023/09/15 08:49:54;;;;;;;3.53;2.63;;;14.80;99.90;;;;;;5022176;28;20225;-63
2023/09/15 08:52:21;;;;;;;4.50;2.80;;;14.90;99.90;;;;;;4997050;28;20233;-63
2023/09/15 08:54:51;;;;;;;5.90;2.42;;;14.90;99.90;;;;;;5007314;28;20212;-62
2023/09/15 08:57:21;;;;;;;8.60;2.70;;;15.00;99.90;;;;;;4977625;28;22206;-63
2023/09/15 08:59:49;;;;;;;4.97;2.70;;;15.00;99.90;;;;;;5015167;28;20206;-63
2023/09/15 09:02:16;;;;;;;4.35;2.38;;;15.00;99.90;;;;;;5007970;28;20828;-63
2023/09/15 09:04:43;;;;;;;3.13;2.63;;;15.00;99.90;;;;;;5019938;28;20901;-63
2023/09/15 09:07:10;;;;;;;8.10;2.38;;;15.20;99.90;;;;;;4998295;28;20224;-63
2023/09/15 09:09:38;;;;;;;6.22;2.75;;;15.20;99.90;;;;;;5014776;28;20206;-63
2023/09/15 09:12:06;;;;;;;4.70;2.20;;;15.20;99.90;;;;;;5006829;28;20226;-63
2023/09/15 09:14:35;;;;;;;6.28;2.90;;;15.30;99.90;;;;;;4984690;28;20206;-63
2023/09/15 09:17:02;;;;;;;5.40;2.50;;;15.50;99.90;;;;;;5004198;28;20688;-63
2023/09/15 09:19:36;;;;;;;9.70;2.60;;;15.50;99.90;;;;;;5013891;28;20585;-63
2023/09/15 09:22:03;;;;;;;2.90;2.10;;;15.50;99.90;;;;;;5003376;28;20398;-63
2023/09/15 09:24:29;;;;;;;5.63;2.33;;;15.60;99.90;;;;;;5010585;28;20480;-63
2023/09/15 09:26:56;;;;;;;4.60;2.20;;;15.60;99.90;;;;;;5007474;28;20209;-62
2023/09/15 09:29:26;;;;;;;4.93;2.53;;;15.70;99.90;;;;;;4977184;28;20225;-63
2023/09/15 09:31:55;;;;;;;4.43;2.50;;;15.70;99.90;;;;;;5007357;28;20596;-63
2023/09/15 09:34:21;;;;;;;4.13;2.40;;;15.80;99.90;;;;;;5014026;28;20197;-63
2023/09/15 09:36:49;;;;;;;5.75;2.30;;;15.60;99.90;;;;;;5000147;28;20197;-63
2023/09/15 09:39:16;;;;;;;7.63;2.95;;;15.90;99.90;;;;;;5006472;28;20193;-63
2023/09/15 09:41:44;;;;;;;3.70;2.42;;;15.90;99.90;;;;;;5005459;28;20575;-63
2023/09/15 09:44:13;;;;;;;5.05;2.50;;;16.00;99.90;;;;;;5015283;28;20257;-63
2023/09/15 09:46:42;;;;;;;4.05;2.45;;;16.10;99.90;;;;;;4949866;28;20217;-63
2023/09/15 09:49:10;;;;;;;4.85;2.53;;;16.20;99.90;;;;;;5000247;28;20720;-63
2023/09/15 09:51:37;;;;;;;4.10;2.47;;;16.20;99.90;;;;;;4994339;28;20603;-63
2023/09/15 09:54:07;;;;;;;6.90;2.97;;;16.30;99.90;;;;;;4994630;28;20649;-63
2023/09/15 09:56:34;;;;;;;3.92;2.42;;;16.40;99.90;;;;;;5008039;28;20502;-63
2023/09/15 09:59:10;;;;;;;3.55;2.42;;;16.40;99.90;;;;;;4994980;28;20205;-63
2023/09/15 10:01:37;;;;;;;4.18;2.28;;;16.50;99.90;;;;;;4979168;28;20271;-63
2023/09/15 10:04:05;;;;;;;4.97;2.50;;;16.50;99.90;;;;;;4996440;28;20202;-63
2023/09/15 10:06:35;;;;;;;5.43;3.25;;;16.60;99.90;;;;;;5006152;28;20207;-63
2023/09/15 10:09:05;;;;;;;2.88;2.15;;;16.60;99.90;;;;;;4986684;28;20221;-63
2023/09/15 10:11:34;;;;;;;9.07;2.47;;;16.70;99.90;;;;;;4994276;28;20742;-63
2023/09/15 10:14:03;;;;;;;4.55;2.90;;;16.70;99.90;;;;;;4999626;28;20198;-63
2023/09/15 10:16:31;;;;;;;5.22;2.78;;;16.70;99.90;;;;;;4982559;28;20636;-62
2023/09/15 10:19:00;;;;;;;5.97;2.97;;;16.80;99.90;;;;;;5000203;28;20232;-63
2023/09/15 10:21:28;;;;;;;4.55;2.67;;;16.90;99.90;;;;;;5004995;28;20312;-63
2023/09/15 10:24:02;;;;;;;7.10;2.92;;;16.90;99.90;;;;;;5005237;28;20198;-63
2023/09/15 10:26:30;;;;;;;6.10;2.90;;;17.00;99.90;;;;;;5007041;28;20216;-63
2023/09/15 10:28:57;;;;;;;6.57;3.00;;;17.10;99.90;;;;;;5006031;28;20198;-63
2023/09/15 10:31:24;;;;;;;5.18;2.47;;;17.20;99.90;;;;;;4988835;28;21132;-63
2023/09/15 10:33:51;;;;;;;3.90;2.42;;;17.20;99.90;;;;;;5013780;28;20209;-63
2023/09/15 10:36:20;;;;;;;7.50;3.00;;;17.20;99.90;;;;;;5018710;28;20523;-63
2023/09/15 10:38:47;;;;;;;5.78;2.72;;;17.30;99.90;;;;;;4996743;28;20690;-63
2023/09/15 10:41:26;;;;;;;10.57;2.60;;;17.30;99.90;;;;;;4994162;28;20738;-63
2023/09/15 10:43:53;;;;;;;5.25;2.65;;;17.30;99.90;;;;;;5002030;28;20209;-63
2023/09/15 10:46:20;;;;;;;5.13;2.38;;;17.40;99.90;;;;;;4977305;28;20853;-63
2023/09/15 10:48:48;;;;;;;7.40;2.40;;;17.40;99.90;;;;;;5019998;28;20607;-63
2023/09/15 10:51:18;;;;;;;4.95;2.38;;;17.40;99.90;;;;;;4995839;28;20451;-63
2023/09/15 10:53:45;;;;;;;5.55;2.55;;;17.50;99.90;;;;;;4998553;28;20253;-63
2023/09/15 10:56:13;;;;;;;3.42;2.45;;;17.50;99.90;;;;;;5005801;28;20290;-63
2023/09/15 10:58:42;;;;;;;5.47;2.50;;;17.60;99.90;;;;;;5015031;28;20209;-63
2023/09/15 11:01:10;;;;;;;10.13;2.85;;;17.60;99.90;;;;;;4989367;28;20625;-63
2023/09/15 11:03:38;;;;;;;4.82;2.58;;;17.80;99.90;;;;;;4964859;28;20249;-63
2023/09/15 11:06:08;;;;;;;2.80;2.42;;;17.80;99.90;;;;;;4986195;28;20667;-63
2023/09/15 11:08:35;;;;;;;5.13;2.72;;;17.90;99.90;;;;;;5006094;28;20198;-63
2023/09/15 11:11:04;;;;;;;6.88;2.80;;;17.90;99.90;;;;;;4993935;28;20738;-63
2023/09/15 11:13:31;;;;;;;5.93;2.72;;;18.00;99.90;;;;;;4997194;28;20226;-63
2023/09/15 11:16:00;;;;;;;4.22;2.80;;;18.00;99.90;;;;;;4990887;28;20217;-63
2023/09/15 11:18:27;;;;;;;3.85;2.35;;;18.10;99.90;;;;;;4982507;28;20710;-63
2023/09/15 11:20:55;;;;;;;3.92;2.75;;;18.10;99.90;;;;;;4987539;28;20205;-63
2023/09/15 11:23:24;;;;;;;5.20;2.50;;;18.20;99.90;;;;;;5009751;28;20864;-63
2023/09/15 11:26:00;;;;;;;5.63;2.40;;;18.20;99.90;;;;;;4998320;28;20209;-63
2023/09/15 11:28:28;;;;;;;7.40;2.65;;;18.20;99.90;;;;;;4998483;28;20288;-63
2023/09/15 11:30:55;;;;;;;3.50;1.95;;;18.40;99.90;;;;;;4998464;28;20235;-63
2023/09/15 11:33:23;;;;;;;3.17;2.05;;;18.40;99.90;;;;;;4964431;28;20589;-63
2023/09/15 11:35:51;;;;;;;3.92;2.45;;;18.40;99.90;;;;;;4972130;28;20676;-63
2023/09/15 11:38:19;;;;;;;3.30;2.35;;;18.60;99.90;;;;;;4977197;28;20331;-63
2023/09/15 11:40:47;;;;;;;2.55;2.22;;;18.50;99.90;;;;;;4958194;28;20256;-63
2023/09/15 11:43:14;;;;;;;4.50;2.38;;;18.50;99.90;;;;;;5008231;28;20517;-62
2023/09/15 11:45:42;;;;;;;6.50;2.25;;;18.50;99.90;;;;;;4987727;28;20233;-63
2023/09/15 11:48:09;;;;;;;3.78;2.28;;;18.50;99.90;;;;;;4947800;28;20917;-63
2023/09/15 11:50:38;;;;;;;4.50;2.42;;;18.60;99.90;;;;;;4997471;28;20208;-63
2023/09/15 11:53:05;;;;;;;3.72;2.22;;;18.60;99.90;;;;;;4991463;28;20449;-63
2023/09/15 11:55:32;;;;;;;3.58;2.50;;;18.70;99.90;;;;;;5014108;28;21910;-63
2023/09/15 11:57:59;;;;;;;6.00;2.70;;;18.70;99.90;;;;;;5000606;28;20205;-63
2023/09/15 12:00:30;;;;;;;3.42;2.30;;;18.80;99.90;;;;;;4999180;28;20581;-63
2023/09/15 12:02:57;;;;;;;5.80;2.42;;;18.80;99.90;;;;;;5006558;28;20800;-63
2023/09/15 12:05:24;;;;;;;3.38;2.15;;;18.80;99.90;;;;;;4966217;28;20428;-63
2023/09/15 12:07:53;;;;;;;3.30;2.45;;;18.90;99.90;;;;;;5000146;28;20203;-63
2023/09/15 12:10:22;;;;;;;6.50;2.58;;;18.90;99.90;;;;;;5011373;28;20281;-63
2023/09/15 12:12:49;;;;;;;3.33;2.50;;;18.90;99.90;;;;;;4988590;28;21092;-63
2023/09/15 12:15:16;;;;;;;2.97;2.20;;;19.10;99.90;;;;;;4998523;28;20209;-63
2023/09/15 12:17:45;;;;;;;3.38;2.22;;;19.00;99.90;;;;;;5006186;28;20213;-63
2023/09/15 12:20:12;;;;;;;6.47;2.53;;;19.10;99.90;;;;;;4967500;28;20213;-63
2023/09/15 12:22:40;;;;;;;2.90;2.17;;;19.10;99.90;;;;;;4983524;28;20209;-63
2023/09/15 12:25:10;;;;;;;1.60;1.50;;;19.20;99.90;;;;;;5004092;28;20230;-63
2023/09/15 12:27:39;;;;;;;2.55;2.03;;;19.30;99.90;;;;;;4982671;28;20217;-63
2023/09/15 12:30:08;;;;;;;3.08;2.40;;;19.30;99.90;;;;;;5000913;28;20229;-63
2023/09/15 12:32:36;;;;;;;7.68;2.40;;;19.30;99.90;;;;;;5007599;28;20232;-63
2023/09/15 12:35:08;;;;;;;4.32;2.58;;;19.40;99.90;;;;;;4977245;28;20783;-63
2023/09/15 12:37:36;;;;;;;5.03;2.45;;;19.50;99.90;;;;;;4965123;28;20264;-63
2023/09/15 12:40:03;;;;;;;7.03;2.60;;;19.50;99.90;;;;;;5013344;28;20202;-63
2023/09/15 12:42:31;;;;;;;4.65;2.63;;;19.50;99.90;;;;;;4997197;28;21415;-64
2023/09/15 12:44:57;;;;;;;6.45;2.40;;;19.60;99.90;;;;;;5012935;28;20348;-64
2023/09/15 12:47:24;;;;;;;6.45;2.63;;;19.60;99.90;;;;;;5003516;28;20543;-64
2023/09/15 12:49:51;;;;;;;3.95;2.42;;;19.60;99.90;;;;;;4970045;28;20588;-63
2023/09/15 12:52:18;;;;;;;5.22;2.10;;;17.50;99.90;;;;;;5020785;22;20244;-64